createdAt,value
2018-07-13T00:00:49.982Z,101472.69
2018-07-13T00:03:54.920Z,101469.20
2018-07-13T00:07:00.077Z,101472.27
2018-07-13T00:10:04.791Z,101477.03
2018-07-13T00:13:09.244Z,101474.46
2018-07-13T00:16:13.973Z,101480.16
2018-07-13T00:19:19.460Z,101481.51
2018-07-13T00:22:23.872Z,101485.00
2018-07-13T00:25:28.512Z,101477.14
2018-07-13T00:28:32.955Z,101481.47
2018-07-13T00:31:38.768Z,101481.48
2018-07-13T00:34:43.059Z,101474.93
2018-07-13T00:37:47.576Z,101476.24
2018-07-13T00:40:52.238Z,101473.56
2018-07-13T00:43:56.675Z,101477.08
2018-07-13T00:47:02.252Z,101470.55
2018-07-13T00:50:07.146Z,101473.23
2018-07-13T00:53:11.975Z,101473.20
2018-07-13T00:56:16.891Z,101467.97
2018-07-13T00:59:21.429Z,101475.40
2018-07-13T01:02:25.747Z,101471.39
2018-07-13T01:05:30.798Z,101474.84
2018-07-13T01:08:35.567Z,101466.10
2018-07-13T01:11:40.006Z,101470.39
2018-07-13T01:14:44.477Z,101472.55
2018-07-13T01:17:48.924Z,101476.03
2018-07-13T01:20:53.780Z,101472.11
2018-07-13T01:23:58.315Z,101467.27
2018-07-13T01:27:03.153Z,101472.91
2018-07-13T01:30:07.907Z,101472.02
2018-07-13T01:33:13.239Z,101468.96
2018-07-13T01:36:18.102Z,101463.72
2018-07-13T01:39:23.094Z,101459.38
2018-07-13T01:42:27.471Z,101465.47
2018-07-13T01:45:32.497Z,101470.71
2018-07-13T01:48:37.323Z,101473.33
2018-07-13T01:51:42.040Z,101479.88
2018-07-13T01:54:46.642Z,101480.27
2018-07-13T01:57:51.588Z,101476.34
2018-07-13T02:00:56.088Z,101480.27
2018-07-13T02:04:00.653Z,101470.19
2018-07-13T02:07:04.947Z,101468.42
2018-07-13T02:10:09.776Z,101463.17
2018-07-13T02:13:14.557Z,101462.19
2018-07-13T02:16:18.967Z,101466.17
2018-07-13T02:19:23.943Z,101471.88
2018-07-13T02:22:28.842Z,101469.72
2018-07-13T02:25:33.396Z,101469.25
2018-07-13T02:28:37.953Z,101468.71
2018-07-13T02:31:42.488Z,101471.33
2018-07-13T02:34:47.615Z,101471.71
2018-07-13T02:37:52.344Z,101467.32
2018-07-13T02:40:56.659Z,101469.94
2018-07-13T02:44:01.195Z,101467.76
2018-07-13T02:47:05.929Z,101464.24
2018-07-13T02:50:10.544Z,101459.85
2018-07-13T02:53:14.888Z,101466.86
2018-07-13T02:56:19.378Z,101452.84
2018-07-13T02:59:23.833Z,101462.84
2018-07-13T03:02:28.505Z,101462.80
2018-07-13T03:05:32.828Z,101461.48
2018-07-13T03:08:37.392Z,101469.30
2018-07-13T03:11:42.176Z,101471.86
2018-07-13T03:14:46.521Z,101466.54
2018-07-13T03:17:55.208Z,101470.94
2018-07-13T03:20:59.573Z,101475.77
2018-07-13T03:24:04.057Z,101477.54
2018-07-13T03:27:08.615Z,101478.31
2018-07-13T03:30:13.071Z,101478.81
2018-07-13T03:33:17.541Z,101480.68
2018-07-13T03:36:21.894Z,101483.30
2018-07-13T03:39:26.204Z,101481.23
2018-07-13T03:42:30.696Z,101491.75
2018-07-13T03:45:35.158Z,101493.12
2018-07-13T03:48:39.759Z,101484.52
2018-07-13T03:51:44.075Z,101477.20
2018-07-13T03:54:48.416Z,101481.05
2018-07-13T03:57:52.763Z,101482.03
2018-07-13T04:00:57.142Z,101481.30
2018-07-13T04:04:01.569Z,101481.41
2018-07-13T04:07:06.346Z,101486.20
2018-07-13T04:10:11.017Z,101482.17
2018-07-13T04:13:15.764Z,101487.32
2018-07-13T04:16:20.387Z,101487.73
2018-07-13T04:19:25.208Z,101492.43
2018-07-13T04:22:30.224Z,101495.05
2018-07-13T04:25:35.504Z,101500.70
2018-07-13T04:28:40.127Z,101495.77
2018-07-13T04:31:45.955Z,101502.20
2018-07-13T04:34:51.535Z,101499.12
2018-07-13T04:37:56.342Z,101502.17
2018-07-13T04:41:01.078Z,101504.76
2018-07-13T04:44:06.352Z,101502.11
2018-07-13T04:47:11.357Z,101503.83
2018-07-13T04:50:16.054Z,101502.95
2018-07-13T04:53:20.843Z,101502.86
2018-07-13T04:56:26.166Z,101497.28
2018-07-13T04:59:30.532Z,101501.70
2018-07-13T05:02:35.669Z,101509.23
2018-07-13T05:05:40.295Z,101505.37
2018-07-13T05:08:44.893Z,101506.15
2018-07-13T05:11:49.755Z,101508.39
2018-07-13T05:14:54.848Z,101508.45
2018-07-13T05:18:00.023Z,101513.30
2018-07-13T05:21:04.688Z,101515.98
2018-07-13T05:24:09.510Z,101525.28
2018-07-13T05:27:14.519Z,101526.61
2018-07-13T05:30:19.028Z,101530.08
2018-07-13T05:33:24.887Z,101529.20
2018-07-13T05:36:29.483Z,101522.95
2018-07-13T05:39:33.840Z,101529.97
2018-07-13T05:42:38.452Z,101530.88
2018-07-13T05:45:43.049Z,101526.91
2018-07-13T05:48:47.898Z,101535.18
2018-07-13T05:51:52.721Z,101537.74
2018-07-13T05:54:58.375Z,101536.87
2018-07-13T05:58:02.717Z,101534.28
2018-07-13T06:01:07.134Z,101537.86
2018-07-13T06:04:12.130Z,101540.96
2018-07-13T06:07:17.205Z,101544.53
2018-07-13T06:10:22.477Z,101545.95
2018-07-13T06:13:26.889Z,101547.85
2018-07-13T06:16:31.237Z,101554.06
2018-07-13T06:19:35.755Z,101550.70
2018-07-13T06:22:40.495Z,101555.23
2018-07-13T06:25:44.777Z,101555.75
2018-07-13T06:28:49.486Z,101558.03
2018-07-13T06:31:53.985Z,101559.43
2018-07-13T06:34:59.368Z,101554.20
2018-07-13T06:38:03.767Z,101549.94
2018-07-13T06:41:08.189Z,101548.67
2018-07-13T06:44:12.692Z,101555.72
2018-07-13T06:47:17.535Z,101558.39
2018-07-13T06:50:22.173Z,101563.67
2018-07-13T06:53:26.579Z,101547.48
2018-07-13T06:56:30.865Z,101556.27
2018-07-13T06:59:35.224Z,101561.56
2018-07-13T07:02:42.534Z,101558.50
2018-07-13T07:06:06.850Z,101561.16
2018-07-13T07:09:11.503Z,101556.84
2018-07-13T07:13:29.583Z,101561.22
2018-07-13T07:16:34.151Z,101553.36
2018-07-13T07:19:38.642Z,101550.69
2018-07-13T07:22:43.073Z,101554.62
2018-07-13T07:25:47.496Z,101562.47
2018-07-13T07:28:52.174Z,101557.20
2018-07-13T07:31:56.655Z,101558.00
2018-07-13T07:35:01.428Z,101562.80
2018-07-13T07:38:05.864Z,101565.47
2018-07-13T07:41:11.182Z,101556.22
2018-07-13T07:44:15.626Z,101556.58
2018-07-13T07:47:20.147Z,101559.60
2018-07-13T07:50:24.945Z,101564.41
2018-07-13T07:53:29.433Z,101559.16
2018-07-13T07:56:34.057Z,101563.05
2018-07-13T07:59:38.879Z,101564.67
2018-07-13T08:02:46.296Z,101566.06
2018-07-13T08:05:50.831Z,101564.79
2018-07-13T08:08:55.708Z,101562.04
2018-07-13T08:12:00.458Z,101555.30
2018-07-13T08:15:05.530Z,101555.14
2018-07-13T08:18:10.120Z,101552.40
2018-07-13T08:21:14.889Z,101554.06
2018-07-13T08:24:22.466Z,101553.53
2018-07-13T08:28:02.044Z,101553.95
2018-07-13T08:31:06.932Z,101548.50
2018-07-13T08:34:11.475Z,101551.27
2018-07-13T08:37:16.092Z,101547.13
2018-07-13T08:40:22.868Z,101541.48
2018-07-13T08:43:28.022Z,101543.02
2018-07-13T08:46:32.579Z,101540.67
2018-07-13T08:49:37.156Z,101553.35
2018-07-13T08:52:42.397Z,101547.44
2018-07-13T08:55:47.013Z,101546.74
2018-07-13T08:58:51.992Z,101546.36
2018-07-13T09:01:56.673Z,101547.17
2018-07-13T09:05:01.959Z,101552.61
2018-07-13T09:08:06.849Z,101551.23
2018-07-13T09:11:11.908Z,101551.08
2018-07-13T09:14:16.938Z,101548.25
2018-07-13T09:17:21.817Z,101549.32
2018-07-13T09:20:26.346Z,101553.86
2018-07-13T09:23:31.110Z,101555.03
2018-07-13T09:26:36.164Z,101554.28
2018-07-13T09:29:40.901Z,101556.23
2018-07-13T09:32:45.517Z,101562.63
2018-07-13T09:35:50.575Z,101558.84
2018-07-13T09:38:55.889Z,101551.20
2018-07-13T09:42:00.473Z,101554.58
2018-07-13T09:45:04.520Z,101564.72
2018-07-13T09:48:09.421Z,101565.34
2018-07-13T09:51:14.780Z,101572.47
2018-07-13T09:54:19.851Z,101565.47
2018-07-13T09:57:24.750Z,101567.27
2018-07-13T10:00:34.523Z,101565.89
2018-07-13T10:03:39.235Z,101571.94
2018-07-13T10:06:48.273Z,101574.78
2018-07-13T10:09:52.949Z,101583.28
2018-07-13T10:12:58.746Z,101578.31
2018-07-13T10:16:03.420Z,101581.81
2018-07-13T10:19:08.073Z,101581.38
2018-07-13T10:22:16.253Z,101580.75
2018-07-13T10:25:20.917Z,101576.56
2018-07-13T10:28:25.883Z,101577.06
2018-07-13T10:31:30.445Z,101582.73
2018-07-13T10:34:35.275Z,101580.49
2018-07-13T10:37:42.203Z,101583.17
2018-07-13T10:40:47.045Z,101581.55
2018-07-13T10:43:51.429Z,101578.69
2018-07-13T10:46:56.309Z,101573.94
2018-07-13T10:50:01.107Z,101577.78
2018-07-13T10:53:06.598Z,101574.74
2018-07-13T10:56:11.353Z,101579.11
2018-07-13T10:59:15.862Z,101578.41
2018-07-13T11:02:20.780Z,101576.44
2018-07-13T11:05:25.202Z,101576.08
2018-07-13T11:08:29.970Z,101583.55
2018-07-13T11:11:34.505Z,101582.22
2018-07-13T11:14:39.141Z,101583.63
2018-07-13T11:17:43.570Z,101577.30
2018-07-13T11:20:48.011Z,101577.95
2018-07-13T11:23:52.554Z,101573.61
2018-07-13T11:26:57.158Z,101576.89
2018-07-13T11:30:01.873Z,101574.50
2018-07-13T11:33:06.440Z,101580.20
2018-07-13T11:36:10.869Z,101585.16
2018-07-13T11:39:15.364Z,101587.34
2018-07-13T11:42:19.756Z,101590.07
2018-07-13T11:45:24.044Z,101589.32
2018-07-13T11:48:28.488Z,101587.67
2018-07-13T11:51:32.985Z,101586.27
2018-07-13T11:54:37.356Z,101591.61
2018-07-13T11:57:41.772Z,101589.84
2018-07-13T12:00:46.199Z,101591.67
2018-07-13T12:03:50.537Z,101593.16
2018-07-13T12:06:55.171Z,101588.83
2018-07-13T12:09:59.811Z,101588.66
2018-07-13T12:13:04.204Z,101590.17
2018-07-13T12:16:08.917Z,101592.83
2018-07-13T12:19:13.441Z,101586.86
2018-07-13T12:22:18.544Z,101594.84
2018-07-13T12:25:22.917Z,101589.30
2018-07-13T12:28:27.797Z,101595.20
2018-07-13T12:31:32.152Z,101601.44
2018-07-13T12:34:36.826Z,101591.51
2018-07-13T12:37:41.182Z,101606.73
2018-07-13T12:40:46.670Z,101601.55
2018-07-13T12:43:51.090Z,101602.23
2018-07-13T12:46:55.376Z,101596.90
2018-07-13T12:49:59.898Z,101595.20
2018-07-13T12:53:04.355Z,101590.48
2018-07-13T12:56:08.795Z,101594.98
2018-07-13T12:59:13.466Z,101595.13
2018-07-13T13:02:18.010Z,101598.18
2018-07-13T13:05:22.515Z,101593.66
2018-07-13T13:08:27.002Z,101602.39
2018-07-13T13:11:31.391Z,101601.11
2018-07-13T13:14:35.910Z,101603.66
2018-07-13T13:17:40.645Z,101612.02
2018-07-13T13:20:45.126Z,101606.59
2018-07-13T13:23:49.480Z,101602.69
2018-07-13T13:26:54.251Z,101600.33
2018-07-13T13:29:58.717Z,101603.66
2018-07-13T13:33:03.368Z,101616.70
2018-07-13T13:36:07.673Z,101605.42
2018-07-13T13:39:11.944Z,101599.58
2018-07-13T13:42:16.317Z,101599.20
2018-07-13T13:45:20.733Z,101604.66
2018-07-13T13:48:25.090Z,101610.16
2018-07-13T13:51:29.939Z,101592.72
2018-07-13T13:54:35.073Z,101598.20
2018-07-13T13:57:39.911Z,101603.94
2018-07-13T14:00:44.273Z,101608.48
2018-07-13T14:03:48.939Z,101602.05
2018-07-13T14:06:53.402Z,101605.42
2018-07-13T14:09:59.688Z,101601.16
2018-07-13T14:13:04.177Z,101601.48
2018-07-13T14:16:09.338Z,101600.25
2018-07-13T14:19:13.697Z,101600.08
2018-07-13T14:22:18.629Z,101599.37
2018-07-13T14:25:22.934Z,101598.39
2018-07-13T14:28:27.327Z,101598.49
2018-07-13T14:31:31.561Z,101607.05
2018-07-13T14:34:35.964Z,101603.00
2018-07-13T14:37:40.796Z,101605.97
2018-07-13T14:40:45.282Z,101608.23
2018-07-13T14:43:49.639Z,101606.06
2018-07-13T14:46:54.669Z,101615.05
2018-07-13T14:49:59.065Z,101616.38
2018-07-13T14:53:03.454Z,101618.36
2018-07-13T14:56:08.039Z,101615.92
2018-07-13T14:59:12.313Z,101617.42
2018-07-13T15:02:16.658Z,101623.30
2018-07-13T15:05:21.191Z,101615.80
2018-07-13T15:08:25.573Z,101629.78
2018-07-13T15:11:29.945Z,101626.78
2018-07-13T15:14:34.331Z,101621.19
2018-07-13T15:17:38.993Z,101629.80
2018-07-13T15:20:43.353Z,101628.13
2018-07-13T15:23:47.968Z,101625.58
2018-07-13T15:26:53.327Z,101631.53
2018-07-13T15:29:57.639Z,101632.75
2018-07-13T15:33:02.198Z,101636.63
2018-07-13T15:36:06.553Z,101629.87
2018-07-13T15:39:10.916Z,101639.31
2018-07-13T15:42:15.295Z,101632.27
2018-07-13T15:45:19.738Z,101632.33
2018-07-13T15:48:24.259Z,101633.14
2018-07-13T15:51:29.121Z,101633.49
2018-07-13T15:54:34.359Z,101636.58
2018-07-13T15:57:39.070Z,101632.95
2018-07-13T16:00:43.478Z,101638.11
2018-07-13T16:03:47.767Z,101637.41
2018-07-13T16:06:52.132Z,101641.48
2018-07-13T16:09:56.456Z,101640.26
2018-07-13T16:13:00.890Z,101634.02
2018-07-13T16:16:05.230Z,101633.43
2018-07-13T16:19:09.557Z,101644.58
2018-07-13T16:22:13.993Z,101639.47
2018-07-13T16:25:18.305Z,101637.86
2018-07-13T16:28:22.733Z,101624.41
2018-07-13T16:31:27.589Z,101632.84
2018-07-13T16:34:31.965Z,101630.24
2018-07-13T16:37:36.336Z,101630.03
2018-07-13T16:40:40.896Z,101633.50
2018-07-13T16:43:45.473Z,101627.24
2018-07-13T16:46:49.926Z,101625.34
2018-07-13T16:49:54.359Z,101625.08
2018-07-13T16:52:58.720Z,101630.93
2018-07-13T16:56:03.211Z,101628.81
2018-07-13T16:59:07.724Z,101623.28
2018-07-13T17:02:12.153Z,101631.09
2018-07-13T17:05:16.609Z,101626.57
2018-07-13T17:08:20.961Z,101632.47
2018-07-13T17:11:25.306Z,101633.56
2018-07-13T17:14:29.856Z,101639.53
2018-07-13T17:17:34.198Z,101634.13
2018-07-13T17:20:38.600Z,101630.83
2018-07-13T17:23:42.973Z,101637.25
2018-07-13T17:26:47.398Z,101640.27
2018-07-13T17:29:52.902Z,101642.16
2018-07-13T17:32:58.556Z,101651.92
2018-07-13T17:36:03.777Z,101649.33
2018-07-13T17:39:08.276Z,101655.09
2018-07-13T17:42:13.674Z,101651.13
2018-07-13T17:45:18.674Z,101641.89
2018-07-13T17:48:23.518Z,101647.61
2018-07-13T17:51:28.152Z,101646.28
2018-07-13T17:54:33.361Z,101648.02
2018-07-13T17:57:37.923Z,101651.94
2018-07-13T18:00:42.450Z,101657.20
2018-07-13T18:03:48.120Z,101655.02
2018-07-13T18:06:53.122Z,101656.72
2018-07-13T18:09:57.728Z,101655.85
2018-07-13T18:13:02.344Z,101656.69
2018-07-13T18:16:07.072Z,101656.31
2018-07-13T18:19:11.499Z,101659.74
2018-07-13T18:22:15.881Z,101661.05
2018-07-13T18:25:20.310Z,101666.83
2018-07-13T18:28:24.753Z,101665.86
2018-07-13T18:31:29.169Z,101668.03
2018-07-13T18:34:33.878Z,101667.56
2018-07-13T18:37:38.213Z,101665.28
2018-07-13T18:40:42.625Z,101671.80
2018-07-13T18:43:47.123Z,101670.32
2018-07-13T18:46:51.575Z,101683.05
2018-07-13T18:49:55.993Z,101678.58
2018-07-13T18:53:00.381Z,101678.13
2018-07-13T18:56:04.961Z,101675.30
2018-07-13T18:59:09.352Z,101677.85
2018-07-13T19:02:13.672Z,101683.03
2018-07-13T19:05:18.017Z,101679.59
2018-07-13T19:08:22.413Z,101681.75
2018-07-13T19:11:26.981Z,101686.98
2018-07-13T19:14:31.286Z,101684.86
2018-07-13T19:17:35.661Z,101685.64
2018-07-13T19:20:40.029Z,101690.28
2018-07-13T19:23:44.384Z,101679.36
2018-07-13T19:26:48.996Z,101685.30
2018-07-13T19:29:53.339Z,101690.45
2018-07-13T19:32:57.702Z,101690.92
2018-07-13T19:36:02.120Z,101696.16
2018-07-13T19:39:07.507Z,101693.52
2018-07-13T19:42:12.026Z,101691.75
2018-07-13T19:45:16.400Z,101691.19
2018-07-13T19:48:20.745Z,101699.55
2018-07-13T19:51:25.183Z,101696.60
2018-07-13T19:54:29.589Z,101708.97
2018-07-13T19:57:34.002Z,101707.19
2018-07-13T20:00:38.397Z,101708.89
2018-07-13T20:03:42.757Z,101711.52
2018-07-13T20:06:47.048Z,101718.13
2018-07-13T20:09:51.456Z,101719.98
2018-07-13T20:12:55.767Z,101723.98
2018-07-13T20:16:00.164Z,101727.41
2018-07-13T20:19:04.565Z,101731.62
2018-07-13T20:22:08.981Z,101729.02
2018-07-13T20:25:13.363Z,101736.86
2018-07-13T20:28:17.743Z,101733.33
2018-07-13T20:31:22.165Z,101738.55
2018-07-13T20:34:26.574Z,101736.36
2018-07-13T20:37:31.026Z,101740.41
2018-07-13T20:40:35.504Z,101739.18
2018-07-13T20:43:40.031Z,101739.23
2018-07-13T20:46:44.489Z,101739.31
2018-07-13T20:49:48.815Z,101737.02
2018-07-13T20:52:53.157Z,101741.31
2018-07-13T20:55:57.477Z,101746.09
2018-07-13T20:59:01.836Z,101748.83
2018-07-13T21:02:06.363Z,101751.86
2018-07-13T21:05:10.815Z,101747.80
2018-07-13T21:08:15.170Z,101746.44
2018-07-13T21:11:19.621Z,101749.00
2018-07-13T21:14:24.043Z,101754.25
2018-07-13T21:17:28.460Z,101749.44
2018-07-13T21:20:32.806Z,101749.88
2018-07-13T21:23:37.234Z,101750.69
2018-07-13T21:26:41.832Z,101750.72
2018-07-13T21:29:46.171Z,101753.02
2018-07-13T21:32:50.493Z,101747.23
2018-07-13T21:35:56.842Z,101751.66
2018-07-13T21:39:01.466Z,101757.68
2018-07-13T21:42:05.864Z,101759.40
2018-07-13T21:45:10.348Z,101755.41
2018-07-13T21:48:14.878Z,101756.25
2018-07-13T21:51:19.324Z,101757.15
2018-07-13T21:54:23.819Z,101750.22
2018-07-13T21:57:28.169Z,101747.07
2018-07-13T22:00:33.009Z,101750.56
2018-07-13T22:03:37.500Z,101749.16
2018-07-13T22:06:41.844Z,101752.72
2018-07-13T22:09:46.111Z,101754.00
2018-07-13T22:12:50.624Z,101756.08
2018-07-13T22:15:55.175Z,101757.42
2018-07-13T22:18:59.500Z,101744.89
2018-07-13T22:22:03.854Z,101746.64
2018-07-13T22:25:08.229Z,101740.62
2018-07-13T22:28:12.535Z,101737.58
2018-07-13T22:31:17.273Z,101741.94
2018-07-13T22:34:21.842Z,101743.25
2018-07-13T22:37:26.752Z,101740.93
2018-07-13T22:40:31.095Z,101744.06
2018-07-13T22:43:35.553Z,101737.51
2018-07-13T22:46:40.115Z,101738.31
2018-07-13T22:49:44.453Z,101734.34
2018-07-13T22:52:48.787Z,101736.03
2018-07-13T22:55:53.169Z,101741.37
2018-07-13T22:58:57.480Z,101744.42
2018-07-13T23:02:01.973Z,101743.52
2018-07-13T23:05:06.569Z,101747.52
2018-07-13T23:08:11.027Z,101750.97
2018-07-13T23:11:15.319Z,101748.39
2018-07-13T23:14:19.939Z,101743.59
2018-07-13T23:17:24.343Z,101744.39
2018-07-13T23:20:28.628Z,101746.64
2018-07-13T23:23:32.903Z,101741.44
2018-07-13T23:26:37.321Z,101743.38
2018-07-13T23:29:41.651Z,101746.98
2018-07-13T23:32:46.048Z,101736.86
2018-07-13T23:35:50.349Z,101734.98
2018-07-13T23:38:54.824Z,101741.57
2018-07-13T23:41:59.074Z,101735.36
2018-07-13T23:45:03.415Z,101736.23
2018-07-13T23:48:07.885Z,101734.92
2018-07-13T23:51:12.257Z,101738.58
2018-07-13T23:54:16.675Z,101739.15
2018-07-13T23:57:21.015Z,101745.97
